createdAt,value
2022-12-03T00:00:50.478Z,0.90
2022-12-03T00:03:52.123Z,0.83
2022-12-03T00:06:53.677Z,0.86
2022-12-03T00:09:55.088Z,0.86
2022-12-03T00:12:56.515Z,0.81
2022-12-03T00:15:57.945Z,0.83
2022-12-03T00:18:59.581Z,0.83
2022-12-03T00:22:01.107Z,0.80
2022-12-03T00:25:02.613Z,0.76
2022-12-03T00:28:04.399Z,0.76
2022-12-03T00:31:06.635Z,0.73
2022-12-03T00:34:08.120Z,0.69
2022-12-03T00:37:09.580Z,0.68
2022-12-03T00:40:11.767Z,0.71
2022-12-03T00:43:13.268Z,0.75
2022-12-03T00:46:19.671Z,0.70
2022-12-03T00:49:22.731Z,0.80
2022-12-03T00:52:24.165Z,0.83
2022-12-03T00:55:25.623Z,0.85
2022-12-03T00:58:27.086Z,0.87
2022-12-03T01:01:28.599Z,0.84
2022-12-03T01:04:30.455Z,0.89
2022-12-03T01:07:32.049Z,0.90
2022-12-03T01:10:33.503Z,0.84
2022-12-03T01:13:34.955Z,0.84
2022-12-03T01:16:37.068Z,0.87
2022-12-03T01:19:42.218Z,0.89
2022-12-03T01:22:46.423Z,0.92
2022-12-03T01:25:47.851Z,0.87
2022-12-03T01:28:49.302Z,0.90
2022-12-03T01:31:50.994Z,0.82
2022-12-03T01:34:54.701Z,0.79
2022-12-03T01:37:56.403Z,0.81
2022-12-03T01:40:58.217Z,0.78
2022-12-03T01:44:00.070Z,0.83
2022-12-03T01:47:05.865Z,0.80
2022-12-03T01:50:27.119Z,0.81
2022-12-03T01:53:28.604Z,0.79
2022-12-03T01:56:30.111Z,0.71
2022-12-03T01:59:38.600Z,0.70
2022-12-03T02:02:40.239Z,0.72
2022-12-03T02:05:42.113Z,0.73
2022-12-03T02:08:44.308Z,0.77
2022-12-03T02:11:50.329Z,0.80
2022-12-03T02:14:52.733Z,0.82
2022-12-03T02:17:55.800Z,0.84
2022-12-03T02:21:12.051Z,0.85
2022-12-03T02:24:33.256Z,0.87
2022-12-03T02:27:34.767Z,0.90
2022-12-03T02:30:36.756Z,0.84
2022-12-03T02:33:38.193Z,0.89
2022-12-03T02:36:39.867Z,0.84
2022-12-03T02:39:47.030Z,0.88
2022-12-03T02:42:53.390Z,0.88
2022-12-03T02:45:58.828Z,0.89
2022-12-03T02:49:00.917Z,0.89
2022-12-03T02:52:03.146Z,0.84
2022-12-03T02:55:06.923Z,0.79
2022-12-03T02:58:10.709Z,0.92
2022-12-03T03:01:12.848Z,0.93
2022-12-03T03:04:14.354Z,0.97
2022-12-03T03:07:16.134Z,0.98
2022-12-03T03:10:22.607Z,1.03
2022-12-03T03:13:24.068Z,1.02
2022-12-03T03:16:25.827Z,1.03
2022-12-03T03:19:28.976Z,1.02
2022-12-03T03:22:39.563Z,1.02
2022-12-03T03:25:44.616Z,1.02
2022-12-03T03:28:50.567Z,0.99
2022-12-03T03:31:52.226Z,1.07
2022-12-03T03:34:54.918Z,1.08
2022-12-03T03:37:57.055Z,1.08
2022-12-03T03:41:01.902Z,1.17
2022-12-03T03:44:06.380Z,1.22
2022-12-03T03:47:07.897Z,1.14
2022-12-03T03:50:11.786Z,1.17
2022-12-03T03:53:14.035Z,1.20
2022-12-03T03:56:20.910Z,1.19
2022-12-03T03:59:22.391Z,1.18
2022-12-03T04:02:26.246Z,1.28
2022-12-03T04:05:27.955Z,1.23
2022-12-03T04:08:29.703Z,1.31
2022-12-03T04:11:31.111Z,1.23
2022-12-03T04:14:32.618Z,1.23
2022-12-03T04:17:34.079Z,1.26
2022-12-03T04:20:35.881Z,1.35
2022-12-03T04:23:37.333Z,1.37
2022-12-03T04:26:38.876Z,1.37
2022-12-03T04:29:40.337Z,1.34
2022-12-03T04:32:41.767Z,1.36
2022-12-03T04:35:43.271Z,1.29
2022-12-03T04:38:44.757Z,1.35
2022-12-03T04:41:46.513Z,1.43
2022-12-03T04:44:48.174Z,1.42
2022-12-03T04:47:49.595Z,1.40
2022-12-03T04:50:51.058Z,1.40
2022-12-03T04:53:52.525Z,1.44
2022-12-03T04:56:54.216Z,1.36
2022-12-03T04:59:55.618Z,1.43
2022-12-03T05:02:58.600Z,1.47
2022-12-03T05:06:00.087Z,1.48
2022-12-03T05:09:01.475Z,1.44
2022-12-03T05:12:02.959Z,1.40
2022-12-03T05:15:05.986Z,1.44
2022-12-03T05:18:07.380Z,1.48
2022-12-03T05:21:08.845Z,1.51
2022-12-03T05:24:28.685Z,1.51
2022-12-03T05:27:30.244Z,1.51
2022-12-03T05:30:32.028Z,1.47
2022-12-03T05:33:33.655Z,1.47
2022-12-03T05:36:35.085Z,1.47
2022-12-03T05:39:36.967Z,1.53
2022-12-03T05:42:38.559Z,1.46
2022-12-03T05:45:42.168Z,1.48
2022-12-03T05:48:43.666Z,1.49
2022-12-03T05:51:45.154Z,1.47
2022-12-03T05:54:46.558Z,1.51
2022-12-03T05:57:47.951Z,1.48
2022-12-03T06:00:49.413Z,1.45
2022-12-03T06:03:50.984Z,1.41
2022-12-03T06:06:52.576Z,1.38
2022-12-03T06:09:54.043Z,1.42
2022-12-03T06:12:55.621Z,1.45
2022-12-03T06:15:57.103Z,1.44
2022-12-03T06:18:58.532Z,1.40
2022-12-03T06:21:59.940Z,1.48
2022-12-03T06:25:06.579Z,1.46
2022-12-03T06:28:08.702Z,1.42
2022-12-03T06:31:10.262Z,1.45
2022-12-03T06:34:11.960Z,1.43
2022-12-03T06:37:22.477Z,1.33
2022-12-03T06:40:27.299Z,1.40
2022-12-03T06:43:47.550Z,1.32
2022-12-03T06:46:49.083Z,1.43
2022-12-03T06:49:50.555Z,1.42
2022-12-03T06:52:51.992Z,1.39
2022-12-03T06:55:53.408Z,1.38
2022-12-03T06:58:54.983Z,1.43
2022-12-03T07:01:56.476Z,1.40
2022-12-03T07:04:58.372Z,1.36
2022-12-03T07:08:00.025Z,1.40
2022-12-03T07:11:01.572Z,1.41
2022-12-03T07:14:05.425Z,1.45
2022-12-03T07:17:07.266Z,1.40
2022-12-03T07:20:09.599Z,1.42
2022-12-03T07:23:11.257Z,1.42
2022-12-03T07:26:12.679Z,1.35
2022-12-03T07:29:14.108Z,1.30
2022-12-03T07:32:15.608Z,1.35
2022-12-03T07:35:17.178Z,1.31
2022-12-03T07:38:18.609Z,1.32
2022-12-03T07:41:20.264Z,1.45
2022-12-03T07:44:21.709Z,1.38
2022-12-03T07:47:23.150Z,1.44
2022-12-03T07:50:24.608Z,1.38
2022-12-03T07:53:26.078Z,1.42
2022-12-03T07:56:27.475Z,1.35
2022-12-03T07:59:29.454Z,1.38
2022-12-03T08:02:30.983Z,1.37
2022-12-03T08:05:32.422Z,1.40
2022-12-03T08:08:33.936Z,1.38
2022-12-03T08:11:35.648Z,1.41
2022-12-03T08:14:37.051Z,1.38
2022-12-03T08:17:38.550Z,1.44
2022-12-03T08:20:41.564Z,1.38
2022-12-03T08:23:43.505Z,1.36
2022-12-03T08:26:46.790Z,1.37
2022-12-03T08:29:48.198Z,1.39
2022-12-03T08:32:51.475Z,1.37
2022-12-03T08:35:53.699Z,1.34
2022-12-03T08:38:58.912Z,1.30
2022-12-03T08:42:18.907Z,1.32
2022-12-03T08:45:32.568Z,1.28
2022-12-03T08:48:35.296Z,1.30
2022-12-03T08:51:36.783Z,1.30
2022-12-03T08:54:38.303Z,1.28
2022-12-03T08:57:41.235Z,1.30
2022-12-03T09:00:42.747Z,1.23
2022-12-03T09:03:51.080Z,1.28
2022-12-03T09:06:54.071Z,1.34
2022-12-03T09:09:55.549Z,1.38
2022-12-03T09:12:56.984Z,1.40
2022-12-03T09:15:58.385Z,1.35
2022-12-03T09:19:00.836Z,1.40
2022-12-03T09:22:02.353Z,1.42
2022-12-03T09:25:04.043Z,1.37
2022-12-03T09:28:05.543Z,1.32
2022-12-03T09:31:06.959Z,1.34
2022-12-03T09:34:09.291Z,1.34
2022-12-03T09:37:11.420Z,1.33
2022-12-03T09:40:13.702Z,1.39
2022-12-03T09:43:15.828Z,1.37
2022-12-03T09:46:18.801Z,1.30
2022-12-03T09:49:20.381Z,1.33
2022-12-03T09:52:28.803Z,1.29
2022-12-03T09:55:30.608Z,1.19
2022-12-03T09:58:34.908Z,1.23
2022-12-03T10:01:36.709Z,1.15
2022-12-03T10:04:38.284Z,1.12
2022-12-03T10:07:40.517Z,1.06
2022-12-03T10:10:42.483Z,1.19
2022-12-03T10:13:44.929Z,1.13
2022-12-03T10:16:46.583Z,1.10
2022-12-03T10:19:48.105Z,1.08
2022-12-03T10:22:49.996Z,1.08
2022-12-03T10:25:56.753Z,1.06
2022-12-03T10:28:58.236Z,1.10
2022-12-03T10:32:08.988Z,1.10
2022-12-03T10:35:25.781Z,1.13
2022-12-03T10:38:27.867Z,1.10
2022-12-03T10:41:29.358Z,1.14
2022-12-03T10:44:30.838Z,1.13
2022-12-03T10:47:32.481Z,1.03
2022-12-03T10:50:35.077Z,1.03
2022-12-03T10:53:39.581Z,1.01
2022-12-03T10:56:44.313Z,1.02
2022-12-03T10:59:45.819Z,1.02
2022-12-03T11:02:53.334Z,1.03
2022-12-03T11:06:01.020Z,1.02
2022-12-03T11:09:08.483Z,0.96
2022-12-03T11:12:20.210Z,0.97
2022-12-03T11:15:42.600Z,0.96
2022-12-03T11:18:44.032Z,1.01
2022-12-03T11:22:03.751Z,1.01
2022-12-03T11:25:26.828Z,1.03
2022-12-03T11:28:31.684Z,1.04
2022-12-03T11:31:39.997Z,1.10
2022-12-03T11:34:41.473Z,1.20
2022-12-03T11:37:42.887Z,1.08
2022-12-03T11:41:08.162Z,1.17
2022-12-03T11:44:30.835Z,1.16
2022-12-03T11:47:58.419Z,1.10
2022-12-03T11:50:59.903Z,1.13
2022-12-03T11:54:01.457Z,1.16
2022-12-03T11:57:03.132Z,1.26
2022-12-03T12:00:23.977Z,1.22
2022-12-03T12:03:27.406Z,1.30
2022-12-03T12:06:39.023Z,1.29
2022-12-03T12:09:55.051Z,1.27
2022-12-03T12:12:56.724Z,1.08
2022-12-03T12:16:00.109Z,1.05
2022-12-03T12:19:30.145Z,0.99
2022-12-03T12:22:31.688Z,0.90
2022-12-03T12:25:40.702Z,0.84
2022-12-03T12:28:42.158Z,0.84
2022-12-03T12:31:43.646Z,0.97
2022-12-03T12:34:51.042Z,0.94
2022-12-03T12:37:59.212Z,1.03
2022-12-03T12:41:07.378Z,0.96
2022-12-03T12:44:12.220Z,0.93
2022-12-03T12:47:13.777Z,0.84
2022-12-03T12:50:17.665Z,0.84
2022-12-03T12:53:32.143Z,0.84
2022-12-03T12:56:33.554Z,0.87
2022-12-03T12:59:35.374Z,0.65
2022-12-03T13:02:40.836Z,0.66
2022-12-03T13:05:44.814Z,0.71
2022-12-03T13:08:48.973Z,0.68
2022-12-03T13:11:55.561Z,0.65
2022-12-03T13:14:59.272Z,0.61
2022-12-03T13:18:01.520Z,0.71
2022-12-03T13:21:24.888Z,0.67
2022-12-03T13:24:33.924Z,0.68
2022-12-03T13:27:35.343Z,0.71
2022-12-03T13:30:36.839Z,0.67
2022-12-03T13:33:38.619Z,0.66
2022-12-03T13:36:44.136Z,0.68
2022-12-03T13:39:57.296Z,0.73
2022-12-03T13:42:59.131Z,0.66
2022-12-03T13:46:00.625Z,0.54
2022-12-03T13:49:02.346Z,0.48
2022-12-03T13:52:14.287Z,0.47
2022-12-03T13:55:24.523Z,0.44
2022-12-03T13:58:26.046Z,0.39
2022-12-03T14:01:28.262Z,0.40
2022-12-03T14:04:29.760Z,0.32
2022-12-03T14:07:31.262Z,0.28
2022-12-03T14:10:32.761Z,0.32
2022-12-03T14:13:34.319Z,0.21
2022-12-03T14:16:35.828Z,0.30
2022-12-03T14:19:37.423Z,0.20
2022-12-03T14:22:38.820Z,0.18
2022-12-03T14:25:40.230Z,0.15
2022-12-03T14:28:41.783Z,0.15
2022-12-03T14:31:43.299Z,0.09
2022-12-03T14:34:44.764Z,0.09
2022-12-03T14:37:46.243Z,0.09
2022-12-03T14:40:47.704Z,0.07
2022-12-03T14:43:49.158Z,-0.05
2022-12-03T14:46:54.037Z,0.02
2022-12-03T14:49:58.345Z,-0.03
2022-12-03T14:52:59.799Z,-0.05
2022-12-03T14:56:01.215Z,-0.05
2022-12-03T14:59:02.711Z,-0.12
2022-12-03T15:02:04.334Z,-0.10
2022-12-03T15:05:06.339Z,-0.15
2022-12-03T15:08:07.867Z,-0.12
2022-12-03T15:11:10.628Z,-0.11
2022-12-03T15:14:12.105Z,-0.14
2022-12-03T15:17:13.562Z,-0.14
2022-12-03T15:20:15.147Z,-0.13
2022-12-03T15:23:17.381Z,-0.12
2022-12-03T15:26:18.827Z,-0.12
2022-12-03T15:29:21.148Z,-0.10
2022-12-03T15:32:22.640Z,-0.16
2022-12-03T15:35:24.122Z,-0.18
2022-12-03T15:38:25.626Z,-0.24
2022-12-03T15:41:27.089Z,-0.22
2022-12-03T15:44:28.563Z,-0.25
2022-12-03T15:47:29.995Z,-0.32
2022-12-03T15:50:35.695Z,-0.29
2022-12-03T15:53:40.518Z,-0.33
2022-12-03T15:56:41.960Z,-0.26
2022-12-03T15:59:43.419Z,-0.29
2022-12-03T16:02:50.784Z,-0.27
2022-12-03T16:05:53.828Z,-0.28
2022-12-03T16:08:55.299Z,-0.28
2022-12-03T16:11:56.703Z,-0.22
2022-12-03T16:14:58.181Z,-0.26
2022-12-03T16:17:59.611Z,-0.25
2022-12-03T16:21:01.082Z,-0.27
2022-12-03T16:24:02.676Z,-0.24
2022-12-03T16:27:04.275Z,-0.21
2022-12-03T16:30:07.264Z,-0.24
2022-12-03T16:33:08.814Z,-0.22
2022-12-03T16:36:10.552Z,-0.24
2022-12-03T16:39:12.119Z,-0.20
2022-12-03T16:42:17.286Z,-0.29
2022-12-03T16:45:19.179Z,-0.27
2022-12-03T16:48:20.607Z,-0.29
2022-12-03T16:51:40.522Z,-0.31
2022-12-03T16:54:42.013Z,-0.30
2022-12-03T16:57:43.462Z,-0.26
2022-12-03T17:00:44.920Z,-0.26
2022-12-03T17:03:46.396Z,-0.23
2022-12-03T17:06:47.794Z,-0.27
2022-12-03T17:09:49.205Z,-0.26
2022-12-03T17:16:12.079Z,-0.26
2022-12-03T17:19:14.002Z,-0.25
2022-12-03T17:22:15.571Z,-0.27
2022-12-03T17:25:17.925Z,-0.29
2022-12-03T17:28:19.370Z,-0.31
2022-12-03T17:31:20.874Z,-0.35
2022-12-03T17:34:22.390Z,-0.35
2022-12-03T17:37:23.890Z,-0.41
2022-12-03T17:40:25.344Z,-0.41
2022-12-03T17:43:26.787Z,-0.42
2022-12-03T17:46:28.644Z,-0.41
2022-12-03T17:49:31.832Z,-0.44
2022-12-03T17:52:33.412Z,-0.43
2022-12-03T17:55:41.145Z,-0.44
2022-12-03T17:58:46.854Z,-0.40
2022-12-03T18:01:48.402Z,-0.39
2022-12-03T18:04:49.848Z,-0.37
2022-12-03T18:07:51.607Z,-0.42
2022-12-03T18:10:53.270Z,-0.45
2022-12-03T18:13:54.738Z,-0.44
2022-12-03T18:16:56.136Z,-0.45
2022-12-03T18:20:00.418Z,-0.46
2022-12-03T18:23:02.297Z,-0.50
2022-12-03T18:26:04.600Z,-0.51
2022-12-03T18:29:06.050Z,-0.50
2022-12-03T18:32:27.201Z,-0.54
2022-12-03T18:35:30.172Z,-0.50
2022-12-03T18:38:33.615Z,-0.53
2022-12-03T18:41:36.104Z,-0.54
2022-12-03T18:44:37.548Z,-0.53
2022-12-03T18:47:39.091Z,-0.53
2022-12-03T18:50:41.081Z,-0.57
2022-12-03T18:53:43.620Z,-0.59
2022-12-03T18:56:45.072Z,-0.59
2022-12-03T18:59:46.798Z,-0.60
2022-12-03T19:03:04.567Z,-0.65
2022-12-03T19:06:18.845Z,-0.59
2022-12-03T19:09:20.622Z,-0.67
2022-12-03T19:12:22.116Z,-0.71
2022-12-03T19:15:23.603Z,-0.68
2022-12-03T19:18:25.095Z,-0.68
2022-12-03T19:21:32.143Z,-0.62
2022-12-03T19:24:35.189Z,-0.65
2022-12-03T19:27:36.596Z,-0.68
2022-12-03T19:30:38.048Z,-0.64
2022-12-03T19:33:39.827Z,-0.70
2022-12-03T19:36:41.338Z,-0.71
2022-12-03T19:39:42.796Z,-0.68
2022-12-03T19:42:44.208Z,-0.71
2022-12-03T19:45:45.727Z,-0.64
2022-12-03T19:48:47.384Z,-0.67
2022-12-03T19:51:49.031Z,-0.66
2022-12-03T19:54:50.592Z,-0.68
2022-12-03T19:57:51.999Z,-0.68
2022-12-03T20:00:53.507Z,-0.77
2022-12-03T20:03:57.631Z,-0.81
2022-12-03T20:06:59.074Z,-0.69
2022-12-03T20:10:00.661Z,-0.66
2022-12-03T20:13:02.433Z,-0.69
2022-12-03T20:16:05.405Z,-0.72
2022-12-03T20:19:10.639Z,-0.79
2022-12-03T20:22:12.212Z,-0.73
2022-12-03T20:25:13.968Z,-0.74
2022-12-03T20:28:15.408Z,-0.78
2022-12-03T20:31:20.108Z,-0.76
2022-12-03T20:34:21.669Z,-0.75
2022-12-03T20:37:23.184Z,-0.70
2022-12-03T20:40:24.717Z,-0.72
2022-12-03T20:43:26.149Z,-0.79
2022-12-03T20:46:29.501Z,-0.74
2022-12-03T20:49:31.111Z,-0.74
2022-12-03T20:52:32.543Z,-0.73
2022-12-03T20:55:34.063Z,-0.81
2022-12-03T20:58:36.173Z,-0.84
2022-12-03T21:01:37.972Z,-0.81
2022-12-03T21:04:39.461Z,-0.83
2022-12-03T21:07:40.979Z,-0.80
2022-12-03T21:10:42.502Z,-0.87
2022-12-03T21:13:44.715Z,-0.83
2022-12-03T21:17:07.193Z,-0.85
2022-12-03T21:20:08.250Z,-0.91
2022-12-03T21:23:10.140Z,-0.90
2022-12-03T21:26:14.449Z,-0.93
2022-12-03T21:29:16.327Z,-0.95
2022-12-03T21:32:18.081Z,-0.95
2022-12-03T21:35:19.584Z,-0.99
2022-12-03T21:38:21.058Z,-0.91
2022-12-03T21:41:22.557Z,-0.96
2022-12-03T21:44:23.979Z,-1.01
2022-12-03T21:47:25.508Z,-0.99
2022-12-03T21:50:27.003Z,-0.95
2022-12-03T21:53:29.512Z,-0.96
2022-12-03T21:56:30.940Z,-0.95
2022-12-03T21:59:32.390Z,-0.95
2022-12-03T22:02:33.914Z,-0.97
2022-12-03T22:05:38.173Z,-1.02
2022-12-03T22:08:39.637Z,-1.00
2022-12-03T22:11:41.099Z,-1.00
2022-12-03T22:14:42.596Z,-1.02
2022-12-03T22:17:44.003Z,-1.01
2022-12-03T22:20:45.399Z,-1.02
2022-12-03T22:23:46.997Z,-0.95
2022-12-03T22:26:48.465Z,-0.91
2022-12-03T22:29:49.951Z,-1.01
2022-12-03T22:32:51.421Z,-1.05
2022-12-03T22:36:01.370Z,-0.99
2022-12-03T22:39:03.332Z,-1.01
2022-12-03T22:42:04.959Z,-0.95
2022-12-03T22:45:06.965Z,-0.95
2022-12-03T22:48:08.383Z,-0.99
2022-12-03T22:51:17.464Z,-1.01
2022-12-03T22:54:23.684Z,-1.00
2022-12-03T22:57:25.657Z,-1.00
2022-12-03T23:00:31.025Z,-1.00
2022-12-03T23:03:32.969Z,-1.02
2022-12-03T23:06:35.975Z,-0.97
2022-12-03T23:09:37.400Z,-0.95
2022-12-03T23:12:38.840Z,-0.94
2022-12-03T23:15:48.581Z,-1.01
2022-12-03T23:18:50.247Z,-1.03
2022-12-03T23:21:51.727Z,-1.05
2022-12-03T23:24:53.138Z,-1.08
2022-12-03T23:27:54.564Z,-1.04
2022-12-03T23:30:56.519Z,-0.99
2022-12-03T23:33:59.161Z,-0.98
2022-12-03T23:37:00.602Z,-1.04
2022-12-03T23:40:02.330Z,-1.05
2022-12-03T23:43:03.766Z,-1.03
2022-12-03T23:46:07.766Z,-1.04
2022-12-03T23:49:09.341Z,-1.06
2022-12-03T23:52:10.838Z,-1.03
2022-12-03T23:55:12.293Z,-1.04
2022-12-03T23:58:13.741Z,-1.04
